Kitsissorsuit

KL  EN  DA
ASIAQ
Weather Now GREENLAND SURVEY
Updated [WGT/WGST] Temperature [°C] Wind [m/s] Air pressure [hPa] Relative humidity [%] Precipitation [mm]
Present Wind chill Speed Max
20.04 16:00-16,1-26,46,7 ⇓7,7100084n/a
20.04 15:00-16,1-27,78,8 ⇓10,899982n/a
20.04 14:00-16,3-27,37,7 ⇓9,399980n/a
20.04 13:00-16,4-28,18,8 ⇓10,399979n/a
20.04 12:00n/an/a8,2 ⇓9,8n/an/an/a
20.04 11:00-17,5-29,28,2 ⇓9,899980n/a
20.04 10:00-18,5-30,58,2 ⇓9,8100080n/a
20.04 09:00-20,0-31,87,2 ⇓9,3100082n/a
20.04 08:00-20,3-32,57,7 ⇓9,3100082n/a
20.04 07:00-20,9-34,08,8 ⇓10,3100182n/a
20.04 06:00-21,3-34,18,2 ⇓9,8100282n/a
20.04 05:00-20,9-34,08,8 ⇓9,8100282n/a
20.04 04:00-21,6-34,98,8 ⇓11,3100381n/a
20.04 03:00-22,3-35,48,2 ⇓9,8100381n/a
20.04 02:00-21,1-33,98,2 ⇓9,8100483n/a
20.04 01:00-22,7-35,27,2 ⇓8,2100481n/a
20.04 00:00-21,5-33,36,7 ⇓7,2100583n/a
19.04 23:00-21,1-32,05,7 ⇓6,2100683n/a
19.04 22:00-20,3-30,45,1 ⇓5,7100683n/a
19.04 21:00-19,4-29,35,1 ⇓5,7100783n/a
19.04 20:00-18,6-26,63,6 ⇓4,1100781n/a
19.04 19:00-16,0-22,12,6 ⇓3,1100783n/a
19.04 18:00-16,0-22,12,6 ⇓3,1100783n/a
19.04 17:00-17,9-24,42,6 ⇙3,1100778n/a
19.04 16:00-17,8-23,42,1 ⇙2,6100878n/a
Position: (74.0605555555,-57.723055555555)

[Back]